createdAt,value
2018-07-01T00:01:23.759Z,75.17
2018-07-01T00:03:55.251Z,74.36
2018-07-01T00:06:27.016Z,74.68
2018-07-01T00:08:58.615Z,74.79
2018-07-01T00:11:29.784Z,74.57
2018-07-01T00:14:01.089Z,74.61
2018-07-01T00:16:32.457Z,75.39
2018-07-01T00:19:03.629Z,76.35
2018-07-01T00:21:34.695Z,76.60
2018-07-01T00:24:05.968Z,77.01
2018-07-01T00:26:37.292Z,77.46
2018-07-01T00:29:08.645Z,77.50
2018-07-01T00:31:40.627Z,77.99
2018-07-01T00:34:11.710Z,77.55
2018-07-01T00:36:43.044Z,76.30
2018-07-01T00:39:14.334Z,75.68
2018-07-01T00:41:45.575Z,74.89
2018-07-01T00:44:17.896Z,74.86
2018-07-01T00:46:49.280Z,74.98
2018-07-01T00:49:21.649Z,74.29
2018-07-01T00:51:52.917Z,74.35
2018-07-01T00:54:24.197Z,74.84
2018-07-01T00:56:55.426Z,75.34
2018-07-01T00:59:26.137Z,75.79
2018-07-01T01:01:57.371Z,75.88
2018-07-01T01:04:28.705Z,76.86
2018-07-01T01:07:00.009Z,77.62
2018-07-01T01:09:31.330Z,78.19
2018-07-01T01:12:03.373Z,79.28
2018-07-01T01:14:34.589Z,79.18
2018-07-01T01:17:05.898Z,79.72
2018-07-01T01:19:37.116Z,78.79
2018-07-01T01:22:08.567Z,78.42
2018-07-01T01:24:40.677Z,77.62
2018-07-01T01:27:11.955Z,77.59
2018-07-01T01:29:44.125Z,76.94
2018-07-01T01:32:15.379Z,77.25
2018-07-01T01:34:46.910Z,76.55
2018-07-01T01:37:18.166Z,76.64
2018-07-01T01:39:49.369Z,76.21
2018-07-01T01:42:24.739Z,76.72
2018-07-01T01:45:01.772Z,77.83
2018-07-01T01:47:50.830Z,78.77
2018-07-01T01:50:29.860Z,79.15
2018-07-01T01:53:13.308Z,79.61
2018-07-01T01:55:55.993Z,79.24
2018-07-01T01:59:32.533Z,77.71
2018-07-01T02:02:11.064Z,77.56
2018-07-01T02:04:48.345Z,77.73
2018-07-01T02:07:29.245Z,77.21
2018-07-01T02:10:00.413Z,77.69
2018-07-01T02:12:31.475Z,78.06
2018-07-01T02:15:06.007Z,77.96
2018-07-01T02:17:42.410Z,78.35
2018-07-01T02:20:15.120Z,77.91
2018-07-01T02:22:50.132Z,77.81
2018-07-01T02:25:23.855Z,77.50
2018-07-01T02:27:55.227Z,77.90
2018-07-01T02:30:26.298Z,77.90
2018-07-01T02:32:57.505Z,78.53
2018-07-01T02:35:29.761Z,78.46
2018-07-01T02:38:00.892Z,78.52
2018-07-01T02:40:31.809Z,79.09
2018-07-01T02:43:02.635Z,78.86
2018-07-01T02:45:33.848Z,79.16
2018-07-01T02:48:05.187Z,79.16
2018-07-01T02:50:36.406Z,80.52
2018-07-01T02:53:07.570Z,80.54
2018-07-01T02:55:38.804Z,80.79
2018-07-01T02:58:09.793Z,81.65
2018-07-01T03:00:41.236Z,81.02
2018-07-01T03:03:13.345Z,81.14
2018-07-01T03:05:44.303Z,80.53
2018-07-01T03:08:15.256Z,80.63
2018-07-01T03:10:46.342Z,80.50
2018-07-01T03:13:17.481Z,80.49
2018-07-01T03:15:49.226Z,80.43
2018-07-01T03:18:20.470Z,80.74
2018-07-01T03:20:52.574Z,81.17
2018-07-01T03:23:23.769Z,81.41
2018-07-01T03:25:54.780Z,81.75
2018-07-01T03:28:25.810Z,82.77
2018-07-01T03:30:56.781Z,82.62
2018-07-01T03:33:28.052Z,82.94
2018-07-01T03:35:59.506Z,82.40
2018-07-01T03:38:31.949Z,81.81
2018-07-01T03:41:03.198Z,81.66
2018-07-01T03:43:34.288Z,81.02
2018-07-01T03:46:05.686Z,80.92
2018-07-01T03:48:37.892Z,81.32
2018-07-01T03:51:09.924Z,81.37
2018-07-01T03:53:43.026Z,80.80
2018-07-01T03:56:14.793Z,79.95
2018-07-01T03:58:46.297Z,79.58
2018-07-01T04:01:18.102Z,78.99
2018-07-01T04:03:49.453Z,79.29
2018-07-01T04:06:20.555Z,79.10
2018-07-01T04:08:51.959Z,79.16
2018-07-01T04:11:24.010Z,79.20
2018-07-01T04:13:56.148Z,78.80
2018-07-01T04:16:27.274Z,78.42
2018-07-01T04:18:58.526Z,78.75
2018-07-01T04:21:29.731Z,78.67
2018-07-01T04:24:01.074Z,78.39
2018-07-01T04:26:32.389Z,78.33
2018-07-01T04:29:04.245Z,78.36
2018-07-01T04:31:35.579Z,77.89
2018-07-01T04:34:07.047Z,77.95
2018-07-01T04:36:38.323Z,77.34
2018-07-01T04:39:10.549Z,77.40
2018-07-01T04:41:41.699Z,76.51
2018-07-01T04:44:13.733Z,76.27
2018-07-01T04:46:45.485Z,75.98
2018-07-01T04:49:16.730Z,75.66
2018-07-01T04:51:47.903Z,75.41
2018-07-01T04:54:19.239Z,74.71
2018-07-01T04:56:50.380Z,74.13
2018-07-01T04:59:21.913Z,74.18
2018-07-01T05:01:53.229Z,74.05
2018-07-01T05:04:24.501Z,74.06
2018-07-01T05:06:55.570Z,74.42
2018-07-01T05:09:26.411Z,74.35
2018-07-01T05:11:57.548Z,74.60
2018-07-01T05:14:29.634Z,73.89
2018-07-01T05:17:00.818Z,74.37
2018-07-01T05:19:31.798Z,74.62
2018-07-01T05:22:02.884Z,74.27
2018-07-01T05:24:33.848Z,74.36
2018-07-01T05:27:05.208Z,74.34
2018-07-01T05:29:36.203Z,74.05
2018-07-01T05:32:07.316Z,74.10
2018-07-01T05:34:38.714Z,74.16
2018-07-01T05:37:10.087Z,74.42
2018-07-01T05:39:42.068Z,74.40
2018-07-01T05:42:13.576Z,73.85
2018-07-01T05:44:45.147Z,73.15
2018-07-01T05:47:16.231Z,72.60
2018-07-01T05:49:47.504Z,72.79
2018-07-01T05:52:18.621Z,72.93
2018-07-01T05:54:49.963Z,72.03
2018-07-01T05:57:22.324Z,71.69
2018-07-01T05:59:53.541Z,71.38
2018-07-01T06:02:24.919Z,70.99
2018-07-01T06:04:56.080Z,69.49
2018-07-01T06:07:27.383Z,68.70
2018-07-01T06:09:58.771Z,68.12
2018-07-01T06:12:30.087Z,66.43
2018-07-01T06:15:01.891Z,66.40
2018-07-01T06:17:33.076Z,65.51
2018-07-01T06:20:04.999Z,65.68
2018-07-01T06:22:36.424Z,63.98
2018-07-01T06:25:08.014Z,60.69
2018-07-01T06:27:38.592Z,55.75
2018-07-01T06:30:11.268Z,54.44
2018-07-01T06:32:42.538Z,52.74
2018-07-01T06:35:14.743Z,50.80
2018-07-01T06:37:47.431Z,48.30
2018-07-01T06:40:19.117Z,46.37
2018-07-01T06:42:50.525Z,45.10
2018-07-01T06:45:21.931Z,44.09
2018-07-01T06:47:53.129Z,42.19
2018-07-01T06:50:24.652Z,43.75
2018-07-01T06:52:55.950Z,48.05
2018-07-01T06:55:27.230Z,49.25
2018-07-01T06:57:59.187Z,49.57
2018-07-01T07:00:31.172Z,50.14
2018-07-01T07:03:02.665Z,50.94
2018-07-01T07:05:34.163Z,49.73
2018-07-01T07:08:05.135Z,51.32
2018-07-01T07:10:36.970Z,51.75
2018-07-01T07:13:09.109Z,51.39
2018-07-01T07:15:41.997Z,51.03
2018-07-01T07:18:15.107Z,48.21
2018-07-01T07:20:47.015Z,49.85
2018-07-01T07:23:18.646Z,49.87
2018-07-01T07:25:51.550Z,47.94
2018-07-01T07:28:23.449Z,47.93
2018-07-01T07:30:57.313Z,49.58
2018-07-01T07:33:29.728Z,45.13
2018-07-01T07:36:02.718Z,44.21
2018-07-01T07:38:36.896Z,42.41
2018-07-01T07:41:08.346Z,43.03
2018-07-01T07:43:43.768Z,36.85
2018-07-01T07:46:18.352Z,36.43
2018-07-01T07:48:50.496Z,37.85
2018-07-01T07:51:22.168Z,39.00
2018-07-01T07:53:54.898Z,35.60
2018-07-01T07:56:27.307Z,34.76
2018-07-01T07:58:59.766Z,35.55
2018-07-01T08:01:33.811Z,36.69
2018-07-01T08:04:08.771Z,36.67
2018-07-01T08:06:42.062Z,36.71
2018-07-01T08:09:15.624Z,37.58
2018-07-01T08:11:48.217Z,35.88
2018-07-01T08:14:20.807Z,35.44
2018-07-01T08:16:52.853Z,38.73
2018-07-01T08:19:24.851Z,33.58
2018-07-01T08:21:57.066Z,31.76
2018-07-01T08:24:29.698Z,30.72
2018-07-01T08:27:01.592Z,35.67
2018-07-01T08:29:34.060Z,34.81
2018-07-01T08:32:07.622Z,34.33
2018-07-01T08:34:40.224Z,36.88
2018-07-01T08:37:13.366Z,34.36
2018-07-01T08:39:46.974Z,33.76
2018-07-01T08:42:24.454Z,33.28
2018-07-01T08:44:57.274Z,34.68
2018-07-01T08:47:30.565Z,34.58
2018-07-01T08:50:04.141Z,35.07
2018-07-01T08:52:38.362Z,29.88
2018-07-01T08:55:10.174Z,32.12
2018-07-01T08:57:43.968Z,32.26
2018-07-01T09:00:16.942Z,30.17
2018-07-01T09:02:55.594Z,31.14
2018-07-01T09:05:28.567Z,29.86
2018-07-01T09:08:00.491Z,30.18
2018-07-01T09:10:33.269Z,30.83
2018-07-01T09:13:09.231Z,30.19
2018-07-01T09:15:43.090Z,30.62
2018-07-01T09:18:24.816Z,27.81
2018-07-01T09:20:57.180Z,27.26
2018-07-01T09:23:29.989Z,27.90
2018-07-01T09:26:05.072Z,31.48
2018-07-01T09:28:38.030Z,32.70
2018-07-01T09:31:11.159Z,29.76
2018-07-01T09:33:45.028Z,28.24
2018-07-01T09:36:19.837Z,28.44
2018-07-01T09:38:53.619Z,26.13
2018-07-01T09:41:28.054Z,27.87
2018-07-01T09:44:01.203Z,25.93
2018-07-01T09:46:34.703Z,26.96
2018-07-01T09:49:08.335Z,29.25
2018-07-01T09:51:42.055Z,30.87
2018-07-01T09:54:14.298Z,30.79
2018-07-01T09:56:46.721Z,27.89
2018-07-01T09:59:18.364Z,26.60
2018-07-01T10:01:55.852Z,27.58
2018-07-01T10:04:27.898Z,26.60
2018-07-01T10:07:03.448Z,26.69
2018-07-01T10:09:39.330Z,28.76
2018-07-01T10:12:10.649Z,30.10
2018-07-01T10:14:43.595Z,28.65
2018-07-01T10:17:16.823Z,26.59
2018-07-01T10:19:49.861Z,25.82
2018-07-01T10:22:21.516Z,24.50
2018-07-01T10:24:55.545Z,25.72
2018-07-01T10:27:29.059Z,26.29
2018-07-01T10:30:03.924Z,26.85
2018-07-01T10:32:37.620Z,26.25
2018-07-01T10:35:10.285Z,26.88
2018-07-01T10:37:42.020Z,29.31
2018-07-01T10:40:12.526Z,29.45
2018-07-01T10:42:45.191Z,26.57
2018-07-01T10:45:17.798Z,27.67
2018-07-01T10:47:49.741Z,28.03
2018-07-01T10:50:22.584Z,29.39
2018-07-01T10:52:58.315Z,27.11
2018-07-01T10:55:31.117Z,29.82
2018-07-01T10:58:05.968Z,27.79
2018-07-01T11:00:39.170Z,26.45
2018-07-01T11:03:13.314Z,26.24
2018-07-01T11:05:45.974Z,27.83
2018-07-01T11:08:18.132Z,27.28
2018-07-01T11:10:52.689Z,27.40
2018-07-01T11:13:24.481Z,26.75
2018-07-01T11:15:57.003Z,26.85
2018-07-01T11:18:31.052Z,27.12
2018-07-01T11:21:03.587Z,24.88
2018-07-01T11:23:36.344Z,27.94
2018-07-01T11:26:09.769Z,25.97
2018-07-01T11:28:43.260Z,26.47
2018-07-01T11:31:16.353Z,27.09
2018-07-01T11:33:48.325Z,26.91
2018-07-01T11:36:20.334Z,26.82
2018-07-01T11:38:54.280Z,26.09
2018-07-01T11:41:27.651Z,25.31
2018-07-01T11:43:59.927Z,23.64
2018-07-01T11:46:32.276Z,24.55
2018-07-01T11:49:04.946Z,24.99
2018-07-01T11:51:38.579Z,23.79
2018-07-01T11:54:12.645Z,27.10
2018-07-01T11:56:45.833Z,26.94
2018-07-01T11:59:18.530Z,24.28
2018-07-01T12:01:51.769Z,23.02
2018-07-01T12:04:26.816Z,21.65
2018-07-01T12:06:59.163Z,22.54
2018-07-01T12:09:31.776Z,24.29
2018-07-01T12:12:03.869Z,27.13
2018-07-01T12:14:35.845Z,26.82
2018-07-01T12:17:07.867Z,27.61
2018-07-01T12:19:42.496Z,27.12
2018-07-01T12:22:15.809Z,26.67
2018-07-01T12:24:49.550Z,26.91
2018-07-01T12:27:23.899Z,24.47
2018-07-01T12:29:56.145Z,25.85
2018-07-01T12:32:29.592Z,26.46
2018-07-01T12:35:01.988Z,25.13
2018-07-01T12:37:35.253Z,26.77
2018-07-01T12:40:07.567Z,26.84
2018-07-01T12:42:40.657Z,27.07
2018-07-01T12:45:15.841Z,25.67
2018-07-01T12:47:48.997Z,27.66
2018-07-01T12:50:20.544Z,27.30
2018-07-01T12:52:53.825Z,25.46
2018-07-01T12:55:27.234Z,26.99
2018-07-01T12:58:00.159Z,26.87
2018-07-01T13:00:32.996Z,25.80
2018-07-01T13:03:06.151Z,25.16
2018-07-01T13:05:38.831Z,26.77
2018-07-01T13:08:11.340Z,26.66
2018-07-01T13:10:44.817Z,25.49
2018-07-01T13:13:17.280Z,27.33
2018-07-01T13:15:51.027Z,26.93
2018-07-01T13:18:25.886Z,23.41
2018-07-01T13:20:58.880Z,23.62
2018-07-01T13:23:30.346Z,25.13
2018-07-01T13:26:03.135Z,26.04
2018-07-01T13:28:37.656Z,26.63
2018-07-01T13:31:10.153Z,26.19
2018-07-01T13:33:42.355Z,29.08
2018-07-01T13:36:14.786Z,27.78
2018-07-01T13:38:46.781Z,26.48
2018-07-01T13:41:18.874Z,27.46
2018-07-01T13:43:52.481Z,27.64
2018-07-01T13:46:25.074Z,28.18
2018-07-01T13:48:57.592Z,26.59
2018-07-01T13:51:31.210Z,27.35
2018-07-01T13:54:03.866Z,27.62
2018-07-01T13:56:38.635Z,27.31
2018-07-01T13:59:11.398Z,27.18
2018-07-01T14:01:44.441Z,27.90
2018-07-01T14:04:18.410Z,28.61
2018-07-01T14:06:51.093Z,28.80
2018-07-01T14:09:24.452Z,28.30
2018-07-01T14:11:56.920Z,27.99
2018-07-01T14:14:29.364Z,27.78
2018-07-01T14:17:01.633Z,25.93
2018-07-01T14:19:34.678Z,27.61
2018-07-01T14:22:08.035Z,26.74
2018-07-01T14:24:41.237Z,26.88
2018-07-01T14:27:13.206Z,27.03
2018-07-01T14:29:45.406Z,26.77
2018-07-01T14:32:18.206Z,26.22
2018-07-01T14:34:51.514Z,28.07
2018-07-01T14:37:23.603Z,27.94
2018-07-01T14:39:56.177Z,26.16
2018-07-01T14:42:27.903Z,26.22
2018-07-01T14:44:59.979Z,26.11
2018-07-01T14:47:34.318Z,27.58
2018-07-01T14:50:10.109Z,29.29
2018-07-01T14:52:43.802Z,28.29
2018-07-01T14:55:16.178Z,27.12
2018-07-01T14:57:47.723Z,27.69
2018-07-01T15:00:19.608Z,27.53
2018-07-01T15:02:52.467Z,27.89
2018-07-01T15:05:24.062Z,27.44
2018-07-01T15:07:56.591Z,28.97
2018-07-01T15:10:28.857Z,28.64
2018-07-01T15:13:00.637Z,29.39
2018-07-01T15:15:32.864Z,31.00
2018-07-01T15:18:04.729Z,29.70
2018-07-01T15:20:36.639Z,30.32
2018-07-01T15:23:08.253Z,31.40
2018-07-01T15:25:47.393Z,31.71
2018-07-01T15:28:20.031Z,31.91
2018-07-01T15:30:52.897Z,32.30
2018-07-01T15:33:24.811Z,32.94
2018-07-01T15:35:56.339Z,33.93
2018-07-01T15:38:30.567Z,34.12
2018-07-01T15:41:02.111Z,34.03
2018-07-01T15:43:35.892Z,33.85
2018-07-01T15:46:08.477Z,33.85
2018-07-01T15:48:41.332Z,33.41
2018-07-01T15:51:13.207Z,33.44
2018-07-01T15:53:46.126Z,33.96
2018-07-01T15:56:18.032Z,34.91
2018-07-01T15:58:50.011Z,34.56
2018-07-01T16:01:22.089Z,35.18
2018-07-01T16:03:53.710Z,33.78
2018-07-01T16:06:25.457Z,33.78
2018-07-01T16:08:58.233Z,34.58
2018-07-01T16:11:30.000Z,33.63
2018-07-01T16:14:01.836Z,34.04
2018-07-01T16:16:34.055Z,33.73
2018-07-01T16:19:05.557Z,34.44
2018-07-01T16:21:37.515Z,35.07
2018-07-01T16:24:10.174Z,34.90
2018-07-01T16:26:46.936Z,34.63
2018-07-01T16:29:18.958Z,34.05
2018-07-01T16:31:50.688Z,34.12
2018-07-01T16:34:22.434Z,33.64
2018-07-01T16:36:55.448Z,34.03
2018-07-01T16:39:27.525Z,33.42
2018-07-01T16:41:59.207Z,33.51
2018-07-01T16:44:30.134Z,34.12
2018-07-01T16:47:02.377Z,34.87
2018-07-01T16:49:33.970Z,33.87
2018-07-01T16:52:05.692Z,34.64
2018-07-01T16:54:39.585Z,35.11
2018-07-01T16:57:12.567Z,35.21
2018-07-01T16:59:44.165Z,34.95
2018-07-01T17:02:16.206Z,35.44
2018-07-01T17:04:48.343Z,35.62
2018-07-01T17:07:20.973Z,35.33
2018-07-01T17:09:54.159Z,35.25
2018-07-01T17:12:27.627Z,34.92
2018-07-01T17:15:00.115Z,34.88
2018-07-01T17:17:33.191Z,36.59
2018-07-01T17:20:04.985Z,37.35
2018-07-01T17:22:37.591Z,35.59
2018-07-01T17:25:10.015Z,36.39
2018-07-01T17:27:42.415Z,35.63
2018-07-01T17:30:15.614Z,36.67
2018-07-01T17:32:52.527Z,35.52
2018-07-01T17:35:25.925Z,35.79
2018-07-01T17:37:58.117Z,35.94
2018-07-01T17:40:30.011Z,35.90
2018-07-01T17:43:01.755Z,36.13
2018-07-01T17:45:37.179Z,36.87
2018-07-01T17:48:09.889Z,36.16
2018-07-01T17:50:42.497Z,35.56
2018-07-01T17:54:01.536Z,35.75
2018-07-01T17:56:33.031Z,35.84
2018-07-01T17:59:04.519Z,35.92
2018-07-01T18:01:36.806Z,35.20
2018-07-01T18:04:09.764Z,35.72
2018-07-01T18:06:41.576Z,36.69
2018-07-01T18:09:13.725Z,36.65
2018-07-01T18:11:45.475Z,37.87
2018-07-01T18:14:17.282Z,37.55
2018-07-01T18:16:49.436Z,37.44
2018-07-01T19:05:19.342Z,48.82
2018-07-01T19:07:53.068Z,49.36
2018-07-01T19:10:26.506Z,49.85
2018-07-01T19:13:01.115Z,50.12
2018-07-01T19:15:34.264Z,49.20
2018-07-01T19:18:09.173Z,49.49
2018-07-01T19:20:43.018Z,49.22
2018-07-01T19:23:16.116Z,48.28
2018-07-01T19:25:49.346Z,49.52
2018-07-01T19:28:22.491Z,49.71
2018-07-01T19:30:55.671Z,49.91
2018-07-01T19:33:29.609Z,50.12
2018-07-01T19:36:02.685Z,50.17
2018-07-01T19:38:35.209Z,50.62
2018-07-01T19:41:09.312Z,50.41
2018-07-01T19:43:42.978Z,50.87
2018-07-01T19:46:16.987Z,51.38
2018-07-01T19:48:50.765Z,51.27
2018-07-01T19:51:24.151Z,51.40
2018-07-01T19:53:58.000Z,50.59
2018-07-01T19:56:33.117Z,50.39
2018-07-01T19:59:06.274Z,50.20
2018-07-01T20:01:41.288Z,50.16
2018-07-01T20:04:14.984Z,49.54
2018-07-01T20:06:48.410Z,50.10
2018-07-01T20:09:21.969Z,50.39
2018-07-01T20:11:55.061Z,50.16
2018-07-01T20:14:28.616Z,50.50
2018-07-01T20:17:02.351Z,50.28
2018-07-01T20:19:36.726Z,49.76
2018-07-01T20:22:10.477Z,49.74
2018-07-01T20:24:44.872Z,51.32
2018-07-01T20:27:18.297Z,51.36
2018-07-01T20:29:52.052Z,50.98
2018-07-01T20:32:25.675Z,51.42
2018-07-01T20:34:59.204Z,51.37
2018-07-01T20:37:32.953Z,52.17
2018-07-01T20:40:05.961Z,53.04
2018-07-01T20:42:39.244Z,53.67
2018-07-01T20:45:14.016Z,53.13
2018-07-01T20:47:48.004Z,53.68
2018-07-01T20:50:22.504Z,54.35
2018-07-01T20:52:57.127Z,53.87
2018-07-01T20:55:29.960Z,55.08
2018-07-01T20:58:04.405Z,56.27
2018-07-01T21:00:37.856Z,55.49
2018-07-01T21:03:11.535Z,55.73
2018-07-01T21:05:45.472Z,56.00
2018-07-01T21:08:18.097Z,56.73
2018-07-01T21:10:50.556Z,56.66
2018-07-01T21:13:23.207Z,57.05
2018-07-01T21:15:56.340Z,57.65
2018-07-01T21:18:28.404Z,57.29
2018-07-01T21:21:00.327Z,57.79
2018-07-01T21:23:32.631Z,58.04
2018-07-01T21:26:05.333Z,57.68
2018-07-01T21:28:36.941Z,58.04
2018-07-01T21:31:10.093Z,57.86
2018-07-01T21:33:42.997Z,57.74
2018-07-01T21:36:15.096Z,57.77
2018-07-01T21:38:47.476Z,58.82
2018-07-01T21:41:20.357Z,58.81
2018-07-01T21:43:53.431Z,59.13
2018-07-01T21:46:25.743Z,59.22
2018-07-01T21:48:59.336Z,59.07
2018-07-01T21:51:31.899Z,59.10
2018-07-01T21:54:04.748Z,58.69
2018-07-01T21:56:39.063Z,58.61
2018-07-01T21:59:12.329Z,58.54
2018-07-01T22:01:45.456Z,58.92
2018-07-01T22:04:18.161Z,59.62
2018-07-01T22:06:54.811Z,59.69
2018-07-01T22:09:28.556Z,59.44
2018-07-01T22:12:15.715Z,60.09
2018-07-01T22:15:05.472Z,59.75
2018-07-01T22:17:37.983Z,60.07
2018-07-01T22:20:10.588Z,60.14
2018-07-01T22:22:44.123Z,60.34
2018-07-01T22:25:17.079Z,60.43
2018-07-01T22:27:49.545Z,60.96
2018-07-01T22:30:21.991Z,60.21
2018-07-01T22:32:54.691Z,60.50
2018-07-01T22:35:26.257Z,60.39
2018-07-01T22:37:58.380Z,60.75
2018-07-01T22:40:30.000Z,60.59
2018-07-01T22:43:03.164Z,60.74
2018-07-01T22:45:35.879Z,61.13
2018-07-01T22:48:08.496Z,61.47
2018-07-01T22:50:40.925Z,61.90
2018-07-01T22:53:14.196Z,62.15
2018-07-01T22:55:46.512Z,62.13
2018-07-01T22:58:18.410Z,62.22
2018-07-01T23:00:51.340Z,61.56
2018-07-01T23:03:23.268Z,61.89
2018-07-01T23:05:55.871Z,62.11
2018-07-01T23:08:27.230Z,62.07
2018-07-01T23:10:59.475Z,61.83
2018-07-01T23:13:31.261Z,61.34
2018-07-01T23:16:02.945Z,61.91
2018-07-01T23:18:34.257Z,62.03
2018-07-01T23:21:05.574Z,62.41
2018-07-01T23:23:36.666Z,62.51
2018-07-01T23:26:08.144Z,62.23
2018-07-01T23:28:39.427Z,62.50
2018-07-01T23:31:10.452Z,63.11
2018-07-01T23:33:42.117Z,64.04
2018-07-01T23:36:13.320Z,64.74
2018-07-01T23:38:44.914Z,64.83
2018-07-01T23:41:16.224Z,64.52
2018-07-01T23:43:47.566Z,63.79
2018-07-01T23:46:19.160Z,63.62
2018-07-01T23:48:51.458Z,64.19
2018-07-01T23:51:23.009Z,64.03
2018-07-01T23:53:54.674Z,63.10
2018-07-01T23:56:26.663Z,63.10
2018-07-01T23:58:58.070Z,63.14
